sensor_id;sensor_type;location;lat;lon;timestamp;pressure;altitude;pressure_sealevel;temperature;humidity
58534;BME280;44109;52.398;7.024;2023-04-25T00:02:21;100655.81;;;7.14;100.00
58534;BME280;44109;52.398;7.024;2023-04-25T00:04:48;100664.28;;;7.21;100.00
58534;BME280;44109;52.398;7.024;2023-04-25T00:07:16;100662.44;;;7.25;100.00
58534;BME280;44109;52.398;7.024;2023-04-25T00:09:44;100649.25;;;6.91;100.00
58534;BME280;44109;52.398;7.024;2023-04-25T00:12:12;100665.56;;;6.83;100.00
58534;BME280;44109;52.398;7.024;2023-04-25T00:14:40;100669.22;;;6.88;100.00
58534;BME280;44109;52.398;7.024;2023-04-25T00:17:09;100651.09;;;6.74;100.00
58534;BME280;44109;52.398;7.024;2023-04-25T00:19:37;100671.38;;;6.94;100.00
58534;BME280;44109;52.398;7.024;2023-04-25T00:22:05;100679.47;;;6.75;100.00
58534;BME280;44109;52.398;7.024;2023-04-25T00:24:33;100669.34;;;6.79;100.00
58534;BME280;44109;52.398;7.024;2023-04-25T00:27:00;100659.13;;;6.79;100.00
58534;BME280;44109;52.398;7.024;2023-04-25T00:29:28;100655.72;;;6.58;100.00
58534;BME280;44109;52.398;7.024;2023-04-25T00:31:56;100681.66;;;6.69;100.00
58534;BME280;44109;52.398;7.024;2023-04-25T00:34:25;100665.13;;;6.69;100.00
58534;BME280;44109;52.398;7.024;2023-04-25T00:36:52;100687.19;;;6.69;100.00
58534;BME280;44109;52.398;7.024;2023-04-25T00:39:20;100696.97;;;6.54;100.00
58534;BME280;44109;52.398;7.024;2023-04-25T00:41:48;100692.69;;;6.45;100.00
58534;BME280;44109;52.398;7.024;2023-04-25T00:44:19;100698.66;;;6.47;100.00
58534;BME280;44109;52.398;7.024;2023-04-25T00:46:47;100688.09;;;6.49;100.00
58534;BME280;44109;52.398;7.024;2023-04-25T00:49:15;100689.94;;;6.57;100.00
58534;BME280;44109;52.398;7.024;2023-04-25T00:51:44;100694.28;;;6.58;100.00
58534;BME280;44109;52.398;7.024;2023-04-25T00:54:12;100700.84;;;6.29;100.00
58534;BME280;44109;52.398;7.024;2023-04-25T00:56:41;100704.16;;;6.34;100.00
58534;BME280;44109;52.398;7.024;2023-04-25T00:59:11;100692.13;;;6.51;100.00
58534;BME280;44109;52.398;7.024;2023-04-25T01:01:39;100705.09;;;6.51;100.00
58534;BME280;44109;52.398;7.024;2023-04-25T01:04:08;100645.75;;;6.29;100.00
58534;BME280;44109;52.398;7.024;2023-04-25T01:06:36;100701.63;;;6.54;100.00
58534;BME280;44109;52.398;7.024;2023-04-25T01:09:05;100694.53;;;6.65;100.00
58534;BME280;44109;52.398;7.024;2023-04-25T01:11:34;100699.91;;;6.49;100.00
58534;BME280;44109;52.398;7.024;2023-04-25T01:14:01;100703.50;;;6.38;100.00
58534;BME280;44109;52.398;7.024;2023-04-25T01:16:29;100707.16;;;6.42;100.00
58534;BME280;44109;52.398;7.024;2023-04-25T01:18:57;100696.03;;;6.50;100.00
58534;BME280;44109;52.398;7.024;2023-04-25T01:21:27;100677.53;;;6.39;100.00
58534;BME280;44109;52.398;7.024;2023-04-25T01:23:57;100690.28;;;6.31;100.00
58534;BME280;44109;52.398;7.024;2023-04-25T01:26:25;100703.72;;;6.45;100.00
58534;BME280;44109;52.398;7.024;2023-04-25T01:28:53;100693.03;;;6.19;100.00
58534;BME280;44109;52.398;7.024;2023-04-25T01:31:21;100707.16;;;6.29;100.00
58534;BME280;44109;52.398;7.024;2023-04-25T01:33:49;100700.41;;;6.27;100.00
58534;BME280;44109;52.398;7.024;2023-04-25T01:36:17;100701.19;;;6.27;100.00
58534;BME280;44109;52.398;7.024;2023-04-25T01:38:47;100719.34;;;6.41;100.00
58534;BME280;44109;52.398;7.024;2023-04-25T01:41:14;100711.75;;;6.38;100.00
58534;BME280;44109;52.398;7.024;2023-04-25T01:43:44;100721.97;;;6.37;100.00
58534;BME280;44109;52.398;7.024;2023-04-25T01:46:12;100717.63;;;6.36;100.00
58534;BME280;44109;52.398;7.024;2023-04-25T01:48:40;100719.34;;;6.41;100.00
58534;BME280;44109;52.398;7.024;2023-04-25T01:51:07;100719.09;;;6.33;100.00
58534;BME280;44109;52.398;7.024;2023-04-25T01:53:37;100726.00;;;6.27;100.00
58534;BME280;44109;52.398;7.024;2023-04-25T01:56:07;100721.16;;;6.24;100.00
58534;BME280;44109;52.398;7.024;2023-04-25T01:58:35;100716.22;;;6.30;100.00
58534;BME280;44109;52.398;7.024;2023-04-25T02:01:02;100695.91;;;6.22;100.00
58534;BME280;44109;52.398;7.024;2023-04-25T02:03:31;100719.44;;;6.44;100.00
58534;BME280;44109;52.398;7.024;2023-04-25T02:05:59;100718.88;;;6.51;100.00
58534;BME280;44109;52.398;7.024;2023-04-25T02:08:26;100720.59;;;6.55;100.00
58534;BME280;44109;52.398;7.024;2023-04-25T02:10:54;100702.91;;;6.44;100.00
58534;BME280;44109;52.398;7.024;2023-04-25T02:13:23;100735.16;;;6.44;100.00
58534;BME280;44109;52.398;7.024;2023-04-25T02:15:51;100732.63;;;6.26;100.00
58534;BME280;44109;52.398;7.024;2023-04-25T02:18:19;100740.66;;;6.19;100.00
58534;BME280;44109;52.398;7.024;2023-04-25T02:20:47;100734.34;;;6.19;100.00
58534;BME280;44109;52.398;7.024;2023-04-25T02:23:15;100743.59;;;6.02;100.00
58534;BME280;44109;52.398;7.024;2023-04-25T02:25:42;100743.03;;;6.08;100.00
58534;BME280;44109;52.398;7.024;2023-04-25T02:28:10;100745.41;;;5.98;100.00
58534;BME280;44109;52.398;7.024;2023-04-25T02:30:39;100738.72;;;5.87;100.00
58534;BME280;44109;52.398;7.024;2023-04-25T02:33:07;100746.34;;;6.02;100.00
58534;BME280;44109;52.398;7.024;2023-04-25T02:35:34;100740.28;;;5.75;100.00
58534;BME280;44109;52.398;7.024;2023-04-25T02:38:02;100755.53;;;6.06;100.00
58534;BME280;44109;52.398;7.024;2023-04-25T02:40:29;100756.75;;;6.29;100.00
58534;BME280;44109;52.398;7.024;2023-04-25T02:42:57;100754.66;;;6.14;100.00
58534;BME280;44109;52.398;7.024;2023-04-25T02:45:25;100764.84;;;5.80;100.00
58534;BME280;44109;52.398;7.024;2023-04-25T02:47:54;100752.72;;;5.60;100.00
58534;BME280;44109;52.398;7.024;2023-04-25T02:50:21;100760.03;;;5.90;100.00
58534;BME280;44109;52.398;7.024;2023-04-25T02:52:49;100772.56;;;5.87;100.00
58534;BME280;44109;52.398;7.024;2023-04-25T02:55:17;100772.06;;;5.85;100.00
58534;BME280;44109;52.398;7.024;2023-04-25T02:57:44;100763.72;;;5.81;100.00
58534;BME280;44109;52.398;7.024;2023-04-25T03:00:13;100765.19;;;5.79;100.00
58534;BME280;44109;52.398;7.024;2023-04-25T03:02:41;100773.78;;;5.77;100.00
58534;BME280;44109;52.398;7.024;2023-04-25T03:05:10;100767.00;;;5.96;100.00
58534;BME280;44109;52.398;7.024;2023-04-25T03:07:37;100776.44;;;6.07;100.00
58534;BME280;44109;52.398;7.024;2023-04-25T03:10:07;100762.06;;;6.01;100.00
58534;BME280;44109;52.398;7.024;2023-04-25T03:12:34;100782.41;;;5.88;100.00
58534;BME280;44109;52.398;7.024;2023-04-25T03:15:03;100778.69;;;5.93;100.00
58534;BME280;44109;52.398;7.024;2023-04-25T03:17:31;100764.25;;;5.96;100.00
58534;BME280;44109;52.398;7.024;2023-04-25T03:19:59;100780.22;;;5.81;100.00
58534;BME280;44109;52.398;7.024;2023-04-25T03:22:28;100773.16;;;5.93;100.00
58534;BME280;44109;52.398;7.024;2023-04-25T03:24:55;100747.66;;;5.83;100.00
58534;BME280;44109;52.398;7.024;2023-04-25T03:27:23;100778.50;;;6.10;100.00
58534;BME280;44109;52.398;7.024;2023-04-25T03:29:50;100755.06;;;5.92;100.00
58534;BME280;44109;52.398;7.024;2023-04-25T03:32:18;100779.25;;;5.98;100.00
58534;BME280;44109;52.398;7.024;2023-04-25T03:34:46;100785.31;;;5.71;100.00
58534;BME280;44109;52.398;7.024;2023-04-25T03:37:13;100783.88;;;5.85;100.00
58534;BME280;44109;52.398;7.024;2023-04-25T03:39:43;100756.34;;;5.73;100.00
58534;BME280;44109;52.398;7.024;2023-04-25T03:42:10;100784.19;;;5.93;100.00
58534;BME280;44109;52.398;7.024;2023-04-25T03:44:38;100779.97;;;5.95;100.00
58534;BME280;44109;52.398;7.024;2023-04-25T03:47:05;100789.34;;;5.94;100.00
58534;BME280;44109;52.398;7.024;2023-04-25T03:49:34;100792.94;;;6.07;100.00
58534;BME280;44109;52.398;7.024;2023-04-25T03:52:02;100800.75;;;6.05;100.00
58534;BME280;44109;52.398;7.024;2023-04-25T03:54:30;100792.84;;;5.82;100.00
58534;BME280;44109;52.398;7.024;2023-04-25T03:56:59;100807.88;;;6.06;100.00
58534;BME280;44109;52.398;7.024;2023-04-25T03:59:26;100805.31;;;5.80;100.00
58534;BME280;44109;52.398;7.024;2023-04-25T04:01:54;100774.59;;;5.78;100.00
58534;BME280;44109;52.398;7.024;2023-04-25T04:04:22;100801.44;;;5.60;100.00
58534;BME280;44109;52.398;7.024;2023-04-25T04:06:49;100780.09;;;5.57;100.00
58534;BME280;44109;52.398;7.024;2023-04-25T04:09:18;100808.97;;;5.93;100.00
58534;BME280;44109;52.398;7.024;2023-04-25T04:11:46;100798.66;;;5.81;100.00
58534;BME280;44109;52.398;7.024;2023-04-25T04:14:15;100816.09;;;5.73;100.00
58534;BME280;44109;52.398;7.024;2023-04-25T04:16:43;100813.50;;;5.89;100.00
58534;BME280;44109;52.398;7.024;2023-04-25T04:19:10;100804.38;;;5.76;100.00
58534;BME280;44109;52.398;7.024;2023-04-25T04:21:38;100826.66;;;5.62;100.00
58534;BME280;44109;52.398;7.024;2023-04-25T04:24:06;100824.28;;;5.81;100.00
58534;BME280;44109;52.398;7.024;2023-04-25T04:26:34;100819.50;;;5.91;100.00
58534;BME280;44109;52.398;7.024;2023-04-25T04:29:04;100826.09;;;5.77;100.00
58534;BME280;44109;52.398;7.024;2023-04-25T04:31:33;100838.28;;;5.89;100.00
58534;BME280;44109;52.398;7.024;2023-04-25T04:34:00;100837.81;;;5.87;100.00
58534;BME280;44109;52.398;7.024;2023-04-25T04:36:29;100843.06;;;6.00;100.00
58534;BME280;44109;52.398;7.024;2023-04-25T04:38:57;100838.75;;;5.91;100.00
58534;BME280;44109;52.398;7.024;2023-04-25T04:41:24;100846.16;;;5.78;100.00
58534;BME280;44109;52.398;7.024;2023-04-25T04:43:52;100851.88;;;5.94;100.00
58534;BME280;44109;52.398;7.024;2023-04-25T04:46:21;100854.66;;;5.85;100.00
58534;BME280;44109;52.398;7.024;2023-04-25T04:48:51;100860.50;;;5.83;100.00
58534;BME280;44109;52.398;7.024;2023-04-25T04:51:19;100856.59;;;5.84;100.00
58534;BME280;44109;52.398;7.024;2023-04-25T04:53:47;100857.31;;;5.81;100.00
58534;BME280;44109;52.398;7.024;2023-04-25T04:56:15;100856.22;;;5.95;100.00
58534;BME280;44109;52.398;7.024;2023-04-25T04:58:43;100863.22;;;5.92;100.00
58534;BME280;44109;52.398;7.024;2023-04-25T05:01:10;100869.91;;;6.03;100.00
58534;BME280;44109;52.398;7.024;2023-04-25T05:03:38;100863.19;;;5.71;100.00
58534;BME280;44109;52.398;7.024;2023-04-25T05:06:07;100869.19;;;5.94;100.00
58534;BME280;44109;52.398;7.024;2023-04-25T05:08:36;100866.28;;;5.91;100.00
58534;BME280;44109;52.398;7.024;2023-04-25T05:11:03;100872.88;;;5.77;100.00
58534;BME280;44109;52.398;7.024;2023-04-25T05:13:31;100877.75;;;5.72;100.00
58534;BME280;44109;52.398;7.024;2023-04-25T05:15:59;100876.00;;;5.88;100.00
58534;BME280;44109;52.398;7.024;2023-04-25T05:18:26;100888.97;;;5.88;100.00
58534;BME280;44109;52.398;7.024;2023-04-25T05:20:54;100891.06;;;5.91;100.00
58534;BME280;44109;52.398;7.024;2023-04-25T05:23:23;100895.75;;;5.90;100.00
58534;BME280;44109;52.398;7.024;2023-04-25T05:25:51;100887.03;;;5.88;100.00
58534;BME280;44109;52.398;7.024;2023-04-25T05:28:18;100895.28;;;6.30;100.00
58534;BME280;44109;52.398;7.024;2023-04-25T05:30:47;100897.38;;;6.12;100.00
58534;BME280;44109;52.398;7.024;2023-04-25T05:33:14;100897.78;;;6.23;100.00
58534;BME280;44109;52.398;7.024;2023-04-25T05:35:42;100898.16;;;6.33;100.00
58534;BME280;44109;52.398;7.024;2023-04-25T05:38:10;100903.13;;;6.40;100.00
58534;BME280;44109;52.398;7.024;2023-04-25T05:40:40;100905.50;;;6.29;100.00
58534;BME280;44109;52.398;7.024;2023-04-25T05:43:07;100907.53;;;6.53;100.00
58534;BME280;44109;52.398;7.024;2023-04-25T05:45:35;100903.66;;;6.67;100.00
58534;BME280;44109;52.398;7.024;2023-04-25T05:48:03;100908.09;;;6.47;100.00
58534;BME280;44109;52.398;7.024;2023-04-25T05:50:30;100905.38;;;6.59;100.00
58534;BME280;44109;52.398;7.024;2023-04-25T05:52:58;100907.41;;;6.95;100.00
58534;BME280;44109;52.398;7.024;2023-04-25T05:55:26;100898.72;;;6.60;100.00
58534;BME280;44109;52.398;7.024;2023-04-25T05:57:55;100913.66;;;6.59;100.00
58534;BME280;44109;52.398;7.024;2023-04-25T06:00:22;100921.66;;;6.52;100.00
58534;BME280;44109;52.398;7.024;2023-04-25T06:02:50;100931.06;;;6.51;100.00
58534;BME280;44109;52.398;7.024;2023-04-25T06:05:18;100926.09;;;6.77;100.00
58534;BME280;44109;52.398;7.024;2023-04-25T06:07:45;100931.84;;;6.72;100.00
58534;BME280;44109;52.398;7.024;2023-04-25T06:10:13;100933.03;;;6.63;100.00
58534;BME280;44109;52.398;7.024;2023-04-25T06:12:41;100933.56;;;6.44;100.00
58534;BME280;44109;52.398;7.024;2023-04-25T06:15:10;100940.88;;;6.60;100.00
58534;BME280;44109;52.398;7.024;2023-04-25T06:17:38;100935.03;;;6.74;100.00
58534;BME280;44109;52.398;7.024;2023-04-25T06:20:07;100948.81;;;6.74;100.00
58534;BME280;44109;52.398;7.024;2023-04-25T06:22:35;100942.75;;;6.81;100.00
58534;BME280;44109;52.398;7.024;2023-04-25T06:25:03;100951.06;;;6.93;100.00
58534;BME280;44109;52.398;7.024;2023-04-25T06:27:33;100949.72;;;6.66;100.00
58534;BME280;44109;52.398;7.024;2023-04-25T06:30:00;100957.56;;;6.76;100.00
58534;BME280;44109;52.398;7.024;2023-04-25T06:32:30;100955.19;;;6.99;100.00
58534;BME280;44109;52.398;7.024;2023-04-25T06:34:57;100955.31;;;7.03;100.00
58534;BME280;44109;52.398;7.024;2023-04-25T06:37:25;100947.31;;;7.10;100.00
58534;BME280;44109;52.398;7.024;2023-04-25T06:39:53;100953.94;;;6.97;100.00
58534;BME280;44109;52.398;7.024;2023-04-25T06:42:20;100952.50;;;7.60;100.00
58534;BME280;44109;52.398;7.024;2023-04-25T06:44:48;100962.38;;;7.37;100.00
58534;BME280;44109;52.398;7.024;2023-04-25T06:47:16;100962.88;;;6.94;100.00
58534;BME280;44109;52.398;7.024;2023-04-25T06:49:45;100966.03;;;7.17;100.00
58534;BME280;44109;52.398;7.024;2023-04-25T06:52:12;100921.94;;;6.71;100.00
58534;BME280;44109;52.398;7.024;2023-04-25T06:54:40;100962.94;;;7.79;100.00
58534;BME280;44109;52.398;7.024;2023-04-25T06:57:07;100974.88;;;8.48;100.00
58534;BME280;44109;52.398;7.024;2023-04-25T06:59:35;100976.44;;;8.21;100.00
58534;BME280;44109;52.398;7.024;2023-04-25T07:02:03;100973.28;;;8.75;100.00
58534;BME280;44109;52.398;7.024;2023-04-25T07:04:31;100968.25;;;8.65;100.00
58534;BME280;44109;52.398;7.024;2023-04-25T07:07:01;100971.28;;;9.51;100.00
58534;BME280;44109;52.398;7.024;2023-04-25T07:09:29;100967.09;;;9.42;100.00
58534;BME280;44109;52.398;7.024;2023-04-25T07:11:59;100976.50;;;10.04;100.00
58534;BME280;44109;52.398;7.024;2023-04-25T07:14:28;100972.00;;;9.64;97.66
58534;BME280;44109;52.398;7.024;2023-04-25T07:16:56;100966.34;;;9.76;97.70
58534;BME280;44109;52.398;7.024;2023-04-25T07:19:24;100964.13;;;8.87;100.00
58534;BME280;44109;52.398;7.024;2023-04-25T07:21:52;100963.38;;;10.78;100.00
58534;BME280;44109;52.398;7.024;2023-04-25T07:24:21;100973.91;;;10.30;99.61
58534;BME280;44109;52.398;7.024;2023-04-25T07:26:49;100959.31;;;8.56;96.45
58534;BME280;44109;52.398;7.024;2023-04-25T07:29:17;100978.06;;;9.06;100.00
58534;BME280;44109;52.398;7.024;2023-04-25T07:31:44;100977.50;;;8.85;98.07
58534;BME280;44109;52.398;7.024;2023-04-25T07:34:12;100980.78;;;8.34;100.00
58534;BME280;44109;52.398;7.024;2023-04-25T07:36:39;100983.09;;;8.32;100.00
58534;BME280;44109;52.398;7.024;2023-04-25T07:39:07;100993.41;;;8.07;100.00
58534;BME280;44109;52.398;7.024;2023-04-25T07:41:36;100992.56;;;8.31;100.00
58534;BME280;44109;52.398;7.024;2023-04-25T07:44:04;100986.63;;;7.80;100.00
58534;BME280;44109;52.398;7.024;2023-04-25T07:46:32;101009.78;;;7.76;100.00
58534;BME280;44109;52.398;7.024;2023-04-25T07:48:59;100984.78;;;8.09;100.00
58534;BME280;44109;52.398;7.024;2023-04-25T07:51:27;101011.94;;;8.07;97.05
58534;BME280;44109;52.398;7.024;2023-04-25T07:53:55;100998.16;;;8.47;99.77
58534;BME280;44109;52.398;7.024;2023-04-25T07:56:22;101006.75;;;9.14;96.60
58534;BME280;44109;52.398;7.024;2023-04-25T07:58:51;101022.13;;;9.27;98.13
58534;BME280;44109;52.398;7.024;2023-04-25T08:01:19;101007.31;;;8.92;88.25
58534;BME280;44109;52.398;7.024;2023-04-25T08:03:48;101009.41;;;9.58;87.51
58534;BME280;44109;52.398;7.024;2023-04-25T08:06:15;101010.97;;;9.55;86.22
58534;BME280;44109;52.398;7.024;2023-04-25T08:08:43;101015.94;;;9.65;84.01
58534;BME280;44109;52.398;7.024;2023-04-25T08:11:12;101033.38;;;10.17;83.25
58534;BME280;44109;52.398;7.024;2023-04-25T08:13:40;101028.72;;;9.38;80.37
58534;BME280;44109;52.398;7.024;2023-04-25T08:16:09;101029.53;;;9.23;84.60
58534;BME280;44109;52.398;7.024;2023-04-25T08:18:36;101025.97;;;8.95;82.59
58534;BME280;44109;52.398;7.024;2023-04-25T08:21:04;101036.97;;;9.07;88.76
58534;BME280;44109;52.398;7.024;2023-04-25T08:23:32;101041.34;;;9.36;82.26
58534;BME280;44109;52.398;7.024;2023-04-25T08:26:00;101009.53;;;9.77;83.84
58534;BME280;44109;52.398;7.024;2023-04-25T08:28:28;101040.22;;;9.09;70.66
58534;BME280;44109;52.398;7.024;2023-04-25T08:30:56;101038.00;;;9.94;71.71
58534;BME280;44109;52.398;7.024;2023-04-25T08:33:25;101051.31;;;10.55;70.10
58534;BME280;44109;52.398;7.024;2023-04-25T08:35:52;101044.56;;;9.54;73.47
58534;BME280;44109;52.398;7.024;2023-04-25T08:38:20;101055.88;;;9.96;72.04
58534;BME280;44109;52.398;7.024;2023-04-25T08:40:49;101061.25;;;9.73;72.72
58534;BME280;44109;52.398;7.024;2023-04-25T08:43:19;101072.81;;;8.87;73.34
58534;BME280;44109;52.398;7.024;2023-04-25T08:45:47;101044.56;;;8.54;78.30
58534;BME280;44109;52.398;7.024;2023-04-25T08:48:16;101062.66;;;8.63;79.51
58534;BME280;44109;52.398;7.024;2023-04-25T08:50:50;101074.75;;;8.59;83.77
58534;BME280;44109;52.398;7.024;2023-04-25T08:53:25;101080.16;;;8.55;81.09
58534;BME280;44109;52.398;7.024;2023-04-25T08:55:55;101072.47;;;8.12;81.33
58534;BME280;44109;52.398;7.024;2023-04-25T08:58:24;101081.34;;;8.54;82.93
58534;BME280;44109;52.398;7.024;2023-04-25T09:00:52;101078.75;;;8.61;83.55
58534;BME280;44109;52.398;7.024;2023-04-25T09:03:20;101089.09;;;8.36;84.50
58534;BME280;44109;52.398;7.024;2023-04-25T09:05:49;101109.09;;;8.21;82.70
58534;BME280;44109;52.398;7.024;2023-04-25T09:08:17;101107.94;;;7.73;83.65
58534;BME280;44109;52.398;7.024;2023-04-25T09:10:44;101116.13;;;7.49;91.93
58534;BME280;44109;52.398;7.024;2023-04-25T09:13:13;101115.44;;;7.97;100.00
58534;BME280;44109;52.398;7.024;2023-04-25T09:15:49;101125.75;;;7.76;100.00
58534;BME280;44109;52.398;7.024;2023-04-25T09:18:24;101123.13;;;7.79;97.64
58534;BME280;44109;52.398;7.024;2023-04-25T09:20:55;101130.63;;;7.91;98.74
58534;BME280;44109;52.398;7.024;2023-04-25T09:23:23;101121.09;;;8.37;100.00
58534;BME280;44109;52.398;7.024;2023-04-25T09:25:52;101125.34;;;8.23;99.45
58534;BME280;44109;52.398;7.024;2023-04-25T09:28:24;101124.28;;;8.03;98.05
58534;BME280;44109;52.398;7.024;2023-04-25T09:30:55;101115.34;;;8.95;94.83
58534;BME280;44109;52.398;7.024;2023-04-25T09:33:27;101117.63;;;8.93;96.27
58534;BME280;44109;52.398;7.024;2023-04-25T09:36:03;101124.41;;;9.52;93.27
58534;BME280;44109;52.398;7.024;2023-04-25T09:38:40;101124.88;;;10.17;84.16
58534;BME280;44109;52.398;7.024;2023-04-25T09:41:09;101147.69;;;9.79;88.23
58534;BME280;44109;52.398;7.024;2023-04-25T09:43:37;101166.53;;;7.46;100.00
58534;BME280;44109;52.398;7.024;2023-04-25T09:46:08;101175.53;;;6.50;100.00
58534;BME280;44109;52.398;7.024;2023-04-25T09:48:37;101158.25;;;6.41;100.00
58534;BME280;44109;52.398;7.024;2023-04-25T09:51:07;101168.56;;;6.95;100.00
58534;BME280;44109;52.398;7.024;2023-04-25T09:53:37;101164.22;;;6.94;100.00
58534;BME280;44109;52.398;7.024;2023-04-25T09:56:07;101165.00;;;7.15;100.00
58534;BME280;44109;52.398;7.024;2023-04-25T09:58:37;101168.44;;;7.12;100.00
58534;BME280;44109;52.398;7.024;2023-04-25T10:01:06;101151.88;;;7.33;100.00
58534;BME280;44109;52.398;7.024;2023-04-25T10:03:36;101174.66;;;7.09;100.00
58534;BME280;44109;52.398;7.024;2023-04-25T10:06:07;101171.25;;;7.03;100.00
58534;BME280;44109;52.398;7.024;2023-04-25T10:08:38;101177.59;;;7.58;100.00
58534;BME280;44109;52.398;7.024;2023-04-25T10:11:07;101177.44;;;7.87;100.00
58534;BME280;44109;52.398;7.024;2023-04-25T10:13:36;101170.81;;;8.01;100.00
58534;BME280;44109;52.398;7.024;2023-04-25T10:16:04;101174.00;;;8.03;100.00
58534;BME280;44109;52.398;7.024;2023-04-25T10:18:32;101175.41;;;8.21;100.00
58534;BME280;44109;52.398;7.024;2023-04-25T10:21:01;101179.00;;;8.71;100.00
58534;BME280;44109;52.398;7.024;2023-04-25T10:23:33;101175.59;;;9.02;100.00
58534;BME280;44109;52.398;7.024;2023-04-25T10:26:02;101170.97;;;9.06;100.00
58534;BME280;44109;52.398;7.024;2023-04-25T10:28:55;101164.66;;;9.33;100.00
58534;BME280;44109;52.398;7.024;2023-04-25T10:31:23;101166.72;;;9.80;100.00
58534;BME280;44109;52.398;7.024;2023-04-25T10:33:51;101183.75;;;9.66;99.82
58534;BME280;44109;52.398;7.024;2023-04-25T10:36:21;101180.84;;;9.19;74.44
58534;BME280;44109;52.398;7.024;2023-04-25T10:38:52;101188.34;;;8.78;75.40
58534;BME280;44109;52.398;7.024;2023-04-25T10:41:21;101182.44;;;8.80;70.09
58534;BME280;44109;52.398;7.024;2023-04-25T10:43:50;101174.38;;;8.87;73.20
58534;BME280;44109;52.398;7.024;2023-04-25T10:46:28;101164.94;;;9.44;74.96
58534;BME280;44109;52.398;7.024;2023-04-25T10:48:58;101186.38;;;9.75;80.63
58534;BME280;44109;52.398;7.024;2023-04-25T10:51:28;101149.81;;;9.85;76.71
58534;BME280;44109;52.398;7.024;2023-04-25T10:54:01;101170.69;;;9.95;71.44
58534;BME280;44109;52.398;7.024;2023-04-25T10:56:31;101177.31;;;10.38;71.20
58534;BME280;44109;52.398;7.024;2023-04-25T10:59:08;101173.72;;;10.06;66.83
58534;BME280;44109;52.398;7.024;2023-04-25T11:01:39;101173.69;;;9.74;78.70
58534;BME280;44109;52.398;7.024;2023-04-25T11:04:19;101172.59;;;9.63;85.45
58534;BME280;44109;52.398;7.024;2023-04-25T11:07:00;101175.22;;;9.44;90.27
58534;BME280;44109;52.398;7.024;2023-04-25T11:09:38;101179.41;;;9.37;90.73
58534;BME280;44109;52.398;7.024;2023-04-25T11:12:08;101183.50;;;9.44;96.60
58534;BME280;44109;52.398;7.024;2023-04-25T11:14:37;101182.97;;;9.10;93.98
58534;BME280;44109;52.398;7.024;2023-04-25T11:17:05;101202.09;;;9.15;95.40
58534;BME280;44109;52.398;7.024;2023-04-25T11:19:32;101181.66;;;9.48;94.11
58534;BME280;44109;52.398;7.024;2023-04-25T11:22:01;101173.47;;;9.67;92.20
58534;BME280;44109;52.398;7.024;2023-04-25T11:24:31;101176.97;;;9.64;90.04
58534;BME280;44109;52.398;7.024;2023-04-25T11:27:02;101176.91;;;10.08;89.47
58534;BME280;44109;52.398;7.024;2023-04-25T11:29:33;101182.47;;;10.39;93.44
58534;BME280;44109;52.398;7.024;2023-04-25T11:32:01;101173.19;;;10.48;79.97
58534;BME280;44109;52.398;7.024;2023-04-25T11:34:31;101177.28;;;10.89;81.49
58534;BME280;44109;52.398;7.024;2023-04-25T11:36:59;101156.16;;;10.65;67.69
58534;BME280;44109;52.398;7.024;2023-04-25T11:39:29;101183.28;;;10.56;73.10
58534;BME280;44109;52.398;7.024;2023-04-25T11:41:57;101229.66;;;9.96;86.66
58534;BME280;44109;52.398;7.024;2023-04-25T11:44:26;101233.63;;;8.37;100.00
58534;BME280;44109;52.398;7.024;2023-04-25T11:46:53;101221.91;;;6.99;100.00
58534;BME280;44109;52.398;7.024;2023-04-25T11:49:22;101222.84;;;7.45;100.00
58534;BME280;44109;52.398;7.024;2023-04-25T11:51:50;101227.25;;;7.46;100.00
58534;BME280;44109;52.398;7.024;2023-04-25T11:54:18;101217.91;;;8.17;100.00
58534;BME280;44109;52.398;7.024;2023-04-25T11:56:46;101224.31;;;8.42;100.00
58534;BME280;44109;52.398;7.024;2023-04-25T11:59:14;101219.31;;;8.23;100.00
58534;BME280;44109;52.398;7.024;2023-04-25T12:01:49;101200.63;;;7.62;100.00
58534;BME280;44109;52.398;7.024;2023-04-25T12:04:18;101235.44;;;7.87;100.00
58534;BME280;44109;52.398;7.024;2023-04-25T12:06:48;101228.78;;;7.88;100.00
58534;BME280;44109;52.398;7.024;2023-04-25T12:09:19;101232.66;;;8.33;100.00
58534;BME280;44109;52.398;7.024;2023-04-25T12:11:53;101213.78;;;8.72;100.00
58534;BME280;44109;52.398;7.024;2023-04-25T12:14:23;101215.81;;;8.99;100.00
58534;BME280;44109;52.398;7.024;2023-04-25T12:16:55;101213.44;;;9.26;100.00
58534;BME280;44109;52.398;7.024;2023-04-25T12:19:24;101199.47;;;9.34;100.00
58534;BME280;44109;52.398;7.024;2023-04-25T12:21:53;101234.50;;;9.14;100.00
58534;BME280;44109;52.398;7.024;2023-04-25T12:24:22;101224.97;;;8.75;86.73
58534;BME280;44109;52.398;7.024;2023-04-25T12:26:52;101217.78;;;9.11;86.45
58534;BME280;44109;52.398;7.024;2023-04-25T12:29:27;101214.47;;;9.33;75.59
58534;BME280;44109;52.398;7.024;2023-04-25T12:31:58;101229.41;;;9.45;72.69
58534;BME280;44109;52.398;7.024;2023-04-25T12:34:27;101199.56;;;10.26;85.38
58534;BME280;44109;52.398;7.024;2023-04-25T12:36:57;101228.25;;;10.02;78.76
58534;BME280;44109;52.398;7.024;2023-04-25T12:39:25;101227.75;;;10.44;84.86
58534;BME280;44109;52.398;7.024;2023-04-25T12:41:53;101219.13;;;10.17;67.10
58534;BME280;44109;52.398;7.024;2023-04-25T12:44:21;101230.25;;;10.49;73.54
58534;BME280;44109;52.398;7.024;2023-04-25T12:46:48;101226.59;;;10.29;67.33
58534;BME280;44109;52.398;7.024;2023-04-25T12:49:18;101229.44;;;10.64;80.78
58534;BME280;44109;52.398;7.024;2023-04-25T12:51:46;101221.59;;;10.50;71.05
58534;BME280;44109;52.398;7.024;2023-04-25T12:54:14;101242.13;;;10.81;67.96
58534;BME280;44109;52.398;7.024;2023-04-25T12:56:41;101218.28;;;10.45;66.44
58534;BME280;44109;52.398;7.024;2023-04-25T12:59:09;101226.06;;;10.55;66.82
58534;BME280;44109;52.398;7.024;2023-04-25T13:01:37;101213.94;;;11.14;61.86